Latest Weather Observations for Rolleston Airport

IDQ60801

Issued at 8:32 pm EST Saturday 24 June 2017 (issued every 30 minutes, with the page automatically refreshed every 10 minutes)

About weather observations | Map of weather stations | Latest weather observations for QLD | Other Formats
Station Details ID: 035129 Name: ROLLESTON AIRPORT Lat: -24.46 Lon: 148.63 Height: 219.45 m
Data from the previous 72 hours. | See also: Recent months at Rolleston Airport
Date/Time
EST
Temp
°C
App
Temp
°C
Dew
Point
°C
Rel
Hum
%
Delta-T
°C
Wind Press
QNH
hPa
Press
MSL
hPa
Rain since
9am
mm
Dir  Spd
km/h
Gust
km/h
Spd
kts
Gust
kts
24/08:30pm 16.5 15.2 5.8 49 5.2 N 2 4 1 2 1018.2 1017.9 0.0
24/08:00pm 16.9 15.1 5.5 47 5.5 N 4 4 2 2 1018.0 1017.7 0.0
24/07:30pm 17.9 15.7 5.5 44 6.1 NNE 6 6 3 3 1017.6 1017.3 0.0
24/07:00pm 18.4 16.0 5.3 42 6.4 NNE 7 9 4 5 1017.4 1017.1 0.0
24/06:30pm 19.8 17.6 5.5 39 7.1 N 6 6 3 3 1017.3 1017.0 0.0
24/06:00pm 20.5 18.6 4.9 36 7.7 NNE 4 6 2 3 1017.1 1016.8 0.0
24/05:30pm 22.4 20.2 5.4 33 8.6 NE 6 9 3 5 1016.7 1016.4 0.0
24/05:00pm 24.1 23.1 5.5 30 9.5 CALM 0 0 0 0 1016.4 1016.2 0.0
24/04:30pm 24.5 23.1 5.3 29 9.8 ESE 2 6 1 3 1016.3 1016.1 0.0
24/04:00pm 25.1 23.3 5.3 28 10.1 ESE 4 6 2 3 1016.3 1016.1 0.0
24/03:30pm 25.2 23.4 5.4 28 10.2 NNW 4 7 2 4 1016.3 1016.1 0.0
24/03:00pm 25.1 22.8 5.8 29 10.0 WSW 7 13 4 7 1016.5 1016.3 0.0
24/02:30pm 25.0 23.3 5.7 29 10.0 W 4 11 2 6 1016.7 1016.4 0.0
24/02:00pm 25.1 23.9 6.3 30 9.8 WNW 2 11 1 6 1016.9 1016.6 0.0
24/01:30pm 24.5 22.5 6.3 31 9.5 NW 6 9 3 5 1017.1 1016.8 0.0
24/01:00pm 23.7 21.5 6.0 32 9.1 E 7 13 4 7 1017.6 1017.3 0.0
24/12:30pm 23.3 21.5 7.0 35 8.5 ESE 6 9 3 5 1018.1 1017.8 0.0
24/12:00pm 23.0 21.7 7.5 37 8.2 N 4 11 2 6 1018.6 1018.3 0.0
24/11:30am 22.0 20.9 8.5 42 7.2 WSW 4 7 2 4 1019.4 1019.2 0.0
24/11:00am 20.4 19.2 8.1 45 6.4 SSW 4 7 2 4 1020.0 1019.8 0.0
24/10:30am 20.0 19.5 8.0 46 6.3 CALM 0 2 0 1 1020.3 1020.1 0.0
24/10:00am 17.6 16.9 6.8 49 5.4 CALM 0 0 0 0 1020.7 1020.5 0.0
24/09:30am 15.6 14.1 6.6 55 4.4 SE 4 4 2 2 1020.6 1020.4 0.0
24/09:00am 13.0 11.2 5.4 60 3.6 SSE 4 6 2 3 1020.8 1020.6 0.0
24/08:30am 10.4 8.4 4.3 66 2.8 SSE 4 6 2 3 1020.9 1020.7 0.0
24/08:00am 8.1 6.0 3.9 75 1.8 S 4 6 2 3 1020.7 1020.5 0.0
24/07:30am 6.4 5.0 3.7 83 1.2 CALM 0 4 0 2 1020.4 1020.2 0.0
24/07:00am 5.2 3.7 2.9 85 1.0 CALM 0 0 0 0 1019.8 1019.6 0.0
24/06:30am 5.5 3.9 2.5 81 1.2 CALM 0 2 0 1 1019.5 1019.3 0.0
24/06:00am 6.4 4.1 3.0 79 1.4 SSE 4 6 2 3 1019.2 1019.0 0.0
24/05:30am 7.2 4.7 4.0 80 1.4 SSE 6 7 3 4 1019.1 1018.9 0.0
24/05:00am 6.8 4.6 3.6 80 1.4 SSE 4 4 2 2 1018.9 1018.7 0.0
24/04:30am 7.1 5.0 4.1 81 1.3 S 4 6 2 3 1018.7 1018.4 0.0
24/04:00am 7.1 5.1 4.4 83 1.2 SW 4 4 2 2 1018.8 1018.5 0.0
24/03:30am 6.9 5.1 3.2 77 1.6 WSW 2 2 1 1 1018.6 1018.3 0.0
24/03:00am 7.4 6.0 3.5 76 1.7 CALM 0 0 0 0 1018.8 1018.5 0.0
24/02:30am 8.3 6.2 3.8 73 2.0 SSE 4 4 2 2 1018.9 1018.7 0.0
24/02:00am 9.2 7.6 4.6 73 2.1 SSE 2 7 1 4 1019.1 1018.9 0.0
24/01:30am 8.6 7.4 4.4 75 1.9 CALM 0 0 0 0 1019.4 1019.2 0.0
24/01:00am 8.6 7.0 4.4 75 1.9 SSE 2 4 1 2 1019.6 1019.4 0.0
24/12:30am 8.5 6.1 4.5 76 1.8 SSE 6 7 3 4 1019.7 1019.5 0.0
24/12:00am 9.4 7.0 4.2 70 2.3 SSE 6 6 3 3 1019.5 1019.3 0.0
 
Date/Time
EST
Temp
°C
App
Temp
°C
Dew
Point
°C
Rel
Hum
%
Delta-T
°C
Wind Press
QNH
hPa
Press
MSL
hPa
Rain since
9am
mm
Dir  Spd
km/h
Gust
km/h
Spd
kts
Gust
kts
23/11:30pm 11.4 10.3 5.3 66 2.8 CALM 0 0 0 0 1019.6 1019.4 0.0
23/11:00pm 11.8 10.8 5.4 65 3.0 CALM 0 0 0 0 1019.9 1019.7 0.0
23/10:30pm 12.6 11.8 6.4 66 3.0 CALM 0 2 0 1 1020.2 1020.0 0.0
23/10:00pm 11.8 10.1 6.1 68 2.7 WSW 4 6 2 3 1020.5 1020.3 0.0
23/09:30pm 11.4 10.0 5.5 67 2.8 WNW 2 4 1 2 1020.4 1020.2 0.0
23/09:00pm 13.8 12.0 5.2 56 4.1 SE 4 6 2 3 1020.2 1020.0 0.0
23/08:30pm 14.0 12.2 5.4 56 4.1 ESE 4 6 2 3 1020.1 1019.9 0.0
23/08:00pm 15.1 13.6 5.0 51 4.8 NE 2 4 1 2 1019.9 1019.7 0.0
23/07:30pm 16.0 14.0 4.4 46 5.5 ENE 4 6 2 3 1019.9 1019.7 0.0
23/07:00pm 17.9 15.5 5.2 43 6.2 E 7 7 4 4 1019.7 1019.5 0.0
23/06:30pm 18.6 16.3 5.5 42 6.5 ENE 7 9 4 5 1019.4 1019.2 0.0
23/06:00pm 19.9 17.8 5.9 40 7.0 E 6 6 3 3 1019.2 1019.0 0.0
23/05:30pm 21.3 19.5 5.6 36 7.9 NNE 4 6 2 3 1018.9 1018.7 0.0
23/05:00pm 23.1 22.2 6.0 33 8.8 CALM 0 0 0 0 1018.8 1018.5 0.0
23/04:30pm 24.1 23.3 6.4 32 9.2 CALM 0 0 0 0 1018.7 1018.4 0.0
23/04:00pm 23.5 22.2 5.9 32 9.0 SSE 2 4 1 2 1018.6 1018.3 0.0
23/03:30pm 23.8 21.8 6.1 32 9.1 SW 6 9 3 5 1018.6 1018.3 0.0
23/03:00pm 24.1 22.5 6.4 32 9.2 NW 4 7 2 4 1018.7 1018.4 0.0
23/02:30pm 23.5 21.5 6.3 33 8.9 WNW 6 13 3 7 1019.1 1018.9 0.0
23/02:00pm 23.1 20.2 6.4 34 8.6 WSW 11 17 6 9 1019.4 1019.2 0.0
23/01:30pm 23.1 20.9 6.4 34 8.6 WNW 7 15 4 8 1019.6 1019.4 0.0
23/01:00pm 23.2 20.7 6.5 34 8.6 NW 9 13 5 7 1020.3 1020.1 0.0
23/12:30pm 22.2 20.1 6.8 37 8.0 WNW 7 13 4 7 1021.1 1020.9 0.0
23/12:00pm 22.0 19.9 6.7 37 7.9 SW 7 13 4 7 1021.8 1021.5 0.0
23/11:30am 22.5 21.2 7.5 38 7.9 NW 4 13 2 7 1022.4 1022.1 0.0
23/11:00am 21.2 20.1 7.1 40 7.3 SSE 2 7 1 4 1022.9 1022.7 0.0
23/10:30am 20.2 19.3 7.9 45 6.4 SW 2 6 1 3 1023.3 1023.1 0.0
23/10:00am 18.5 17.0 7.0 47 5.8 S 4 6 2 3 1023.4 1023.2 0.0
23/09:30am 16.5 14.8 6.1 50 5.1 SSE 4 7 2 4 1023.8 1023.6 0.0
23/09:00am 14.6 12.9 5.7 55 4.3 SSW 4 4 2 2 1023.7 1023.5 0.0
23/08:30am 12.5 10.6 5.0 60 3.5 S 4 6 2 3 1023.5 1023.3 0.0
23/08:00am 10.9 9.8 5.0 67 2.7 CALM 0 2 0 1 1023.3 1023.1 0.0
23/07:30am 10.1 8.5 4.5 68 2.5 SW 2 4 1 2 1023.1 1022.9 0.0
23/07:00am 9.5 7.4 4.1 69 2.4 SSW 4 6 2 3 1022.8 1022.6 0.0
23/06:30am 9.2 7.5 4.2 71 2.2 SSE 2 4 1 2 1022.6 1022.3 0.0
23/06:00am 9.0 7.4 4.4 73 2.0 S 2 4 1 2 1022.4 1022.1 0.0
23/05:30am 8.5 7.3 4.7 77 1.7 CALM 0 0 0 0 1022.1 1021.8 0.0
23/05:00am 8.3 6.6 4.1 75 1.8 SSE 2 7 1 4 1022.0 1021.7 0.0
23/04:30am 8.2 6.9 3.9 74 1.9 CALM 0 0 0 0 1021.8 1021.5 0.0
23/04:00am 8.5 7.2 3.9 73 2.0 CALM 0 0 0 0 1021.9 1021.6 0.0
23/03:30am 8.4 6.3 3.8 73 2.0 SSE 4 6 2 3 1022.1 1021.8 0.0
23/03:00am 8.3 5.8 3.8 73 2.0 SSE 6 6 3 3 1022.3 1022.0 0.0
23/02:30am 8.4 7.1 4.2 75 1.9 CALM 0 6 0 3 1022.3 1022.0 0.0
23/02:00am 8.9 7.1 3.5 69 2.3 ENE 2 6 1 3 1022.3 1022.0 0.0
23/01:30am 8.8 6.2 4.4 74 2.0 SSE 7 7 4 4 1022.3 1022.0 0.0
23/01:00am 8.6 6.7 4.8 77 1.7 SSE 4 6 2 3 1022.5 1022.2 0.0
23/12:30am 7.9 6.5 3.6 74 1.9 CALM 0 0 0 0 1022.6 1022.3 0.0
23/12:00am 8.7 7.0 4.1 73 2.0 SSE 2 4 1 2 1022.7 1022.4 0.0
 
Date/Time
EST
Temp
°C
App
Temp
°C
Dew
Point
°C
Rel
Hum
%
Delta-T
°C
Wind Press
QNH
hPa
Press
MSL
hPa
Rain since
9am
mm
Dir  Spd
km/h
Gust
km/h
Spd
kts
Gust
kts
22/11:30pm 9.3 7.3 4.5 72 2.2 SSW 4 4 2 2 1022.8 1022.6 0.0
22/11:00pm 10.7 8.8 4.8 67 2.7 SSE 4 6 2 3 1023.0 1022.8 0.0
22/10:30pm 11.2 9.5 5.7 69 2.6 SSE 4 6 2 3 1023.3 1023.1 0.0
22/10:00pm 10.8 9.7 4.9 67 2.7 CALM 0 0 0 0 1023.3 1023.1 0.0
22/09:30pm 11.6 10.4 4.8 63 3.1 CALM 0 0 0 0 1023.3 1023.1 0.0
22/09:00pm 12.8 11.8 5.5 61 3.4 CALM 0 0 0 0 1023.3 1023.1 0.0
22/08:30pm 13.1 12.0 5.3 59 3.7 CALM 0 0 0 0 1023.1 1022.9 0.0
22/08:00pm 14.4 13.3 5.2 54 4.4 CALM 0 0 0 0 1023.0 1022.8 0.0
22/07:30pm 14.4 13.3 5.0 53 4.4 CALM 0 0 0 0 1022.8 1022.6 0.0
22/07:00pm 17.1 16.0 5.1 45 5.8 CALM 0 0 0 0 1022.6 1022.3 0.0
22/06:30pm 18.1 17.0 5.3 43 6.3 CALM 0 0 0 0 1022.4 1022.1 0.0
22/06:00pm 18.7 17.1 4.5 39 6.8 E 2 4 1 2 1022.3 1022.0 0.0
22/05:30pm 20.5 19.0 4.9 36 7.7 ESE 2 4 1 2 1022.0 1021.7 0.0
22/05:00pm 21.6 19.4 5.1 34 8.2 ESE 6 9 3 5 1021.8 1021.5 0.0
22/04:30pm 22.7 20.2 4.7 31 9.0 ESE 7 11 4 6 1021.6 1021.3 0.0
22/04:00pm 22.6 20.2 5.1 32 8.8 SE 7 13 4 7 1021.6 1021.3 0.0
22/03:30pm 22.8 20.6 5.3 32 8.8 SE 6 9 3 5 1021.6 1021.3 0.0
22/03:00pm 23.4 20.5 4.4 29 9.4 E 9 20 5 11 1021.8 1021.5 0.0
22/02:30pm 22.9 20.0 4.4 30 9.2 ESE 9 17 5 9 1022.0 1021.7 0.0
22/02:00pm 23.2 20.5 5.6 32 8.9 SE 9 22 5 12 1022.1 1021.8 0.0
22/01:30pm 22.7 20.5 5.2 32 8.8 ENE 6 17 3 9 1022.5 1022.2 0.0
22/01:00pm 22.5 20.4 5.9 34 8.4 E 6 11 3 6 1023.0 1022.8 0.0
22/12:30pm 22.0 18.4 5.0 33 8.5 ENE 13 22 7 12 1023.5 1023.3 0.0
22/12:00pm 21.5 17.5 5.0 34 8.2 ENE 15 24 8 13 1024.1 1023.9 0.0
22/11:30am 21.4 18.0 5.7 36 7.9 ENE 13 26 7 14 1024.6 1024.4 0.0
22/11:00am 20.8 18.6 6.0 38 7.4 ESE 7 13 4 7 1025.0 1024.8 0.0
22/10:30am 19.7 18.9 6.4 42 6.7 CALM 0 2 0 1 1025.6 1025.4 0.0
22/10:00am 17.4 15.7 5.7 46 5.7 S 4 6 2 3 1026.2 1025.9 0.0
22/09:30am 15.3 12.4 4.7 49 5.0 SSE 9 11 5 6 1026.4 1026.1 0.0
22/09:00am 13.0 10.5 3.7 53 4.2 S 6 7 3 4 1026.4 1026.1 0.0
22/08:30am 10.0 7.7 2.6 60 3.2 S 4 7 2 4 1026.0 1025.8 0.0
22/08:00am 7.3 5.4 2.8 73 1.9 SSW 2 4 1 2 1025.5 1025.3 0.0
22/07:30am 5.2 2.8 2.2 81 1.2 SSW 4 4 2 2 1025.4 1025.2 0.0
22/07:00am 4.1 2.3 1.0 80 1.2 CALM 0 0 0 0 1024.9 1024.7 0.0
22/06:30am 5.2 3.5 1.9 79 1.3 CALM 0 0 0 0 1024.5 1024.3 0.0
22/06:00am 4.9 3.1 1.2 77 1.5 CALM 0 0 0 0 1024.2 1024.0 0.0
22/05:30am 4.7 2.8 0.8 76 1.5 CALM 0 0 0 0 1023.9 1023.7 0.0
22/05:00am 5.5 2.9 1.1 73 1.7 SSW 4 6 2 3 1023.8 1023.6 0.0
22/04:30am 6.2 3.2 2.1 75 1.7 SSE 7 7 4 4 1023.4 1023.2 0.0
22/04:00am 6.4 3.5 1.3 70 2.1 SSE 6 7 3 4 1023.4 1023.2 0.0
22/03:30am 8.2 4.9 2.4 67 2.5 SE 9 11 5 6 1023.2 1023.0 0.0
22/03:00am 7.5 3.9 2.8 72 2.0 SE 11 13 6 7 1023.1 1022.9 0.0
22/02:30am 7.8 4.3 3.3 73 1.9 SE 11 13 6 7 1023.1 1022.9 0.0
22/02:00am 7.5 4.6 2.4 70 2.1 SSE 7 9 4 5 1023.0 1022.8 0.0
22/01:30am 7.5 4.6 2.4 70 2.1 SSE 7 9 4 5 1023.1 1022.9 0.0
22/01:00am 9.3 6.1 3.3 66 2.6 SE 9 9 5 5 1023.2 1023.0 0.0
22/12:30am 8.4 6.1 2.6 67 2.5 SSE 4 6 2 3 1023.3 1023.1 0.0
22/12:00am 10.2 7.4 3.3 62 3.0 SSE 7 7 4 4 1023.3 1023.1 0.0
 
Date/Time
EST
Temp
°C
App
Temp
°C
Dew
Point
°C
Rel
Hum
%
Delta-T
°C
Wind Press
QNH
hPa
Press
MSL
hPa
Rain since
9am
mm
Dir  Spd
km/h
Gust
km/h
Spd
kts
Gust
kts
21/11:30pm 10.0 7.5 3.7 65 2.8 S 6 7 3 4 1023.2 1023.0 0.0
21/11:00pm 10.7 8.4 3.0 59 3.4 SSE 4 4 2 2 1023.5 1023.3 0.0
21/10:30pm 11.7 9.1 3.2 56 3.8 SSE 6 6 3 3 1023.8 1023.6 0.0
21/10:00pm 11.6 9.0 3.1 56 3.8 SSE 6 7 3 4 1024.0 1023.8 0.0
21/09:30pm 13.7 11.2 3.8 51 4.5 SSE 6 6 3 3 1024.1 1023.9 0.0
21/09:00pm 13.9 11.2 3.9 51 4.6 SE 7 7 4 4 1024.0 1023.8 0.0

Other Formats:

Comma delimited format used in spreadsheet applications
http://www.bom.gov.au/fwo/IDQ60801/IDQ60801.94396.axf

JavaScript Object Notation format (JSON) in row-major order
http://www.bom.gov.au/fwo/IDQ60801/IDQ60801.94396.json